Time;durP1;ratioP1;P1;durP2;ratioP2;P2;SDS_P1;SDS_P2;PMS_P1;PMS_P2;Temp;Humidity;BMP_temperature;BMP_pressure;BME280_temperature;BME280_humidity;BME280_pressure;Samples;Min_cycle;Max_cycle;Signal;HPM_P1;HPM_P2
2022/07/05 00:01:21;;;;;;;5.40;2.57;;;20.40;57.30;;;;;;5048021;28;20473;-46
2022/07/05 00:03:47;;;;;;;2.10;1.90;;;20.40;57.50;;;;;;5061373;28;20457;-46
2022/07/05 00:06:14;;;;;;;3.97;2.50;;;20.40;57.50;;;;;;5045070;28;20950;-46
2022/07/05 00:08:41;;;;;;;2.33;2.13;;;20.30;57.20;;;;;;5028430;28;20466;-46
2022/07/05 00:11:08;;;;;;;2.80;2.50;;;20.30;57.20;;;;;;5063645;28;20475;-47
2022/07/05 00:13:35;;;;;;;3.10;2.47;;;20.30;57.80;;;;;;5061306;28;20576;-44
2022/07/05 00:16:02;;;;;;;3.80;2.43;;;20.20;57.30;;;;;;5047363;28;20454;-46
2022/07/05 00:18:29;;;;;;;3.07;2.00;;;20.20;56.50;;;;;;5063495;28;20500;-44
2022/07/05 00:20:57;;;;;;;2.10;1.90;;;20.20;57.10;;;;;;5051533;28;20464;-44
2022/07/05 00:23:24;;;;;;;3.97;2.00;;;20.10;57.20;;;;;;5060235;28;20461;-44
2022/07/05 00:25:50;;;;;;;2.20;2.10;;;20.10;57.70;;;;;;5060741;28;20465;-44
2022/07/05 00:28:17;;;;;;;2.30;2.20;;;20.10;58.00;;;;;;5059364;28;20462;-44
2022/07/05 00:30:44;;;;;;;2.70;2.20;;;20.00;58.60;;;;;;5063510;28;20706;-45
2022/07/05 00:33:11;;;;;;;2.37;2.00;;;20.10;58.50;;;;;;5063741;28;20446;-44
2022/07/05 00:35:37;;;;;;;2.97;2.37;;;20.10;57.60;;;;;;5063618;28;20454;-44
2022/07/05 00:38:04;;;;;;;2.40;2.20;;;20.00;58.00;;;;;;5051028;28;20953;-46
2022/07/05 00:40:31;;;;;;;1.87;1.70;;;19.90;58.30;;;;;;5059850;28;20497;-44
2022/07/05 00:42:58;;;;;;;2.23;1.80;;;19.90;58.70;;;;;;5049026;28;20469;-44
2022/07/05 00:45:25;;;;;;;4.20;2.30;;;19.90;58.80;;;;;;5063614;28;20461;-44
2022/07/05 00:47:52;;;;;;;3.40;2.37;;;19.90;59.00;;;;;;5060507;28;20455;-44
2022/07/05 00:50:19;;;;;;;2.40;2.20;;;19.80;59.30;;;;;;5062391;28;20832;-44
2022/07/05 00:52:46;;;;;;;1.97;1.77;;;19.80;59.30;;;;;;5059285;28;20458;-44
2022/07/05 00:55:13;;;;;;;2.70;1.90;;;19.80;59.30;;;;;;5064422;28;20469;-45
2022/07/05 00:57:40;;;;;;;2.03;1.93;;;19.80;59.50;;;;;;5027426;28;20458;-45
2022/07/05 01:00:07;;;;;;;2.20;2.00;;;19.80;59.80;;;;;;5060148;28;20497;-46
2022/07/05 01:02:34;;;;;;;3.57;2.60;;;19.80;59.60;;;;;;5043124;28;20455;-44
2022/07/05 01:05:02;;;;;;;2.20;1.90;;;19.80;59.40;;;;;;5061562;28;20496;-44
2022/07/05 01:07:29;;;;;;;2.70;2.10;;;19.80;59.50;;;;;;5058417;28;20458;-44
2022/07/05 01:09:56;;;;;;;1.80;1.70;;;19.70;59.40;;;;;;5063694;28;20461;-44
2022/07/05 01:12:23;;;;;;;3.10;2.33;;;19.80;59.10;;;;;;5062534;28;21250;-44
2022/07/05 01:14:51;;;;;;;2.17;1.70;;;19.70;58.50;;;;;;5057531;28;20462;-44
2022/07/05 01:17:18;;;;;;;2.70;2.10;;;19.80;58.50;;;;;;5057768;28;20549;-44
2022/07/05 01:19:44;;;;;;;2.17;1.97;;;19.80;58.70;;;;;;5054326;28;20494;-44
2022/07/05 01:22:17;;;;;;;1.93;1.80;;;19.70;59.30;;;;;;5053965;28;20951;-45
2022/07/05 01:24:46;;;;;;;2.23;1.83;;;19.80;58.40;;;;;;5062081;28;20468;-45
2022/07/05 01:27:14;;;;;;;4.90;2.20;;;19.80;58.40;;;;;;5060462;28;20469;-45
2022/07/05 01:29:42;;;;;;;2.00;1.80;;;19.70;59.00;;;;;;5027738;28;20828;-45
2022/07/05 01:32:09;;;;;;;3.70;2.70;;;19.70;59.00;;;;;;5063218;28;20459;-45
2022/07/05 01:34:40;;;;;;;2.43;2.03;;;19.70;58.40;;;;;;5063755;28;20913;-45
2022/07/05 01:37:09;;;;;;;1.77;1.67;;;19.70;58.50;;;;;;5062353;28;20446;-45
2022/07/05 01:39:37;;;;;;;2.50;1.57;;;19.60;58.60;;;;;;5042574;28;20845;-45
2022/07/05 01:42:04;;;;;;;4.80;2.13;;;19.50;58.60;;;;;;5058563;28;20978;-45
2022/07/05 01:44:31;;;;;;;2.50;2.20;;;19.40;59.80;;;;;;5043215;28;20450;-45
2022/07/05 01:47:04;;;;;;;3.63;2.10;;;19.40;60.10;;;;;;5059939;28;20465;-45
2022/07/05 01:49:43;;;;;;;1.80;1.70;;;19.30;60.30;;;;;;5059280;28;20847;-45
2022/07/05 01:52:11;;;;;;;3.53;2.53;;;19.30;60.40;;;;;;5060590;28;20469;-45
2022/07/05 01:54:39;;;;;;;2.60;1.70;;;19.20;60.60;;;;;;5059335;28;20912;-45
2022/07/05 01:57:07;;;;;;;2.47;1.80;;;19.20;60.20;;;;;;5058735;28;20494;-45
2022/07/05 01:59:35;;;;;;;2.10;1.90;;;19.10;60.60;;;;;;5059953;28;20536;-45
2022/07/05 02:02:03;;;;;;;2.40;2.20;;;19.10;60.90;;;;;;5045654;28;20464;-46
2022/07/05 02:04:30;;;;;;;3.90;2.17;;;19.10;61.40;;;;;;5033163;28;20918;-46
2022/07/05 02:06:57;;;;;;;3.60;2.20;;;19.00;61.20;;;;;;5068212;28;20484;-46
2022/07/05 02:09:24;;;;;;;2.03;1.80;;;19.00;61.30;;;;;;5050953;28;20466;-46
2022/07/05 02:11:51;;;;;;;2.63;1.97;;;19.00;61.40;;;;;;5062350;28;20459;-46
2022/07/05 02:14:18;;;;;;;1.90;1.80;;;19.00;61.60;;;;;;5065925;28;20556;-46
2022/07/05 02:16:45;;;;;;;2.37;2.17;;;19.00;61.60;;;;;;5065404;28;20867;-46
2022/07/05 02:19:12;;;;;;;2.90;1.80;;;19.00;61.80;;;;;;5066836;28;20486;-46
2022/07/05 02:21:40;;;;;;;2.00;1.77;;;19.00;61.90;;;;;;5063930;28;20462;-46
2022/07/05 02:24:07;;;;;;;1.90;1.80;;;19.00;61.80;;;;;;5067028;28;20507;-46
2022/07/05 02:26:34;;;;;;;5.13;2.07;;;19.00;62.00;;;;;;5063909;28;20927;-46
2022/07/05 02:29:03;;;;;;;2.63;2.27;;;19.00;62.10;;;;;;5061104;28;20463;-45
2022/07/05 02:31:31;;;;;;;1.87;1.77;;;19.00;61.80;;;;;;5041233;28;20936;-45
2022/07/05 02:33:58;;;;;;;1.53;1.30;;;18.90;61.80;;;;;;5039364;28;20502;-45
2022/07/05 02:36:25;;;;;;;5.10;1.90;;;18.90;61.80;;;;;;5045025;28;20465;-45
2022/07/05 02:38:52;;;;;;;2.00;1.90;;;18.90;61.90;;;;;;5037709;28;20450;-45
2022/07/05 02:41:19;;;;;;;3.13;1.70;;;18.90;61.00;;;;;;5058088;28;20458;-45
2022/07/05 02:43:46;;;;;;;2.63;1.93;;;18.80;60.90;;;;;;5043461;28;20476;-45
2022/07/05 02:46:13;;;;;;;2.20;2.00;;;18.80;61.70;;;;;;5050423;28;20446;-46
2022/07/05 02:48:40;;;;;;;3.60;2.30;;;18.80;61.70;;;;;;5048630;28;20540;-46
2022/07/05 02:51:07;;;;;;;2.60;1.90;;;18.80;61.70;;;;;;5063831;28;20462;-46
2022/07/05 02:53:34;;;;;;;2.07;1.93;;;18.80;62.10;;;;;;5063713;28;20536;-46
2022/07/05 02:56:01;;;;;;;2.27;2.07;;;18.80;62.20;;;;;;5064461;28;20462;-47
2022/07/05 02:58:28;;;;;;;2.70;2.50;;;18.80;62.00;;;;;;5065539;28;20460;-46
2022/07/05 03:00:55;;;;;;;2.90;2.70;;;18.70;61.90;;;;;;5050850;28;20493;-47
2022/07/05 03:03:21;;;;;;;2.80;2.60;;;18.70;61.90;;;;;;5048900;28;20549;-47
2022/07/05 03:05:48;;;;;;;3.40;3.10;;;18.70;61.50;;;;;;5048229;28;20447;-47
2022/07/05 03:08:15;;;;;;;2.80;2.60;;;18.70;61.50;;;;;;5066484;28;20456;-46
2022/07/05 03:10:42;;;;;;;3.20;2.87;;;18.70;61.70;;;;;;5052429;28;20450;-46
2022/07/05 03:13:09;;;;;;;3.67;3.10;;;18.60;61.70;;;;;;5064513;28;20527;-47
2022/07/05 03:15:35;;;;;;;3.30;2.97;;;18.60;62.10;;;;;;5050555;28;20458;-47
2022/07/05 03:18:02;;;;;;;2.60;2.40;;;18.60;61.90;;;;;;5062308;28;20460;-47
2022/07/05 03:20:29;;;;;;;2.70;2.50;;;18.60;62.00;;;;;;5045627;28;20848;-47
2022/07/05 03:22:56;;;;;;;3.53;2.30;;;18.60;61.60;;;;;;5062842;28;20463;-46
2022/07/05 03:25:23;;;;;;;2.60;2.23;;;18.60;61.60;;;;;;5047090;28;20446;-47
2022/07/05 03:27:49;;;;;;;3.03;2.73;;;18.60;61.80;;;;;;5052054;28;20903;-47
2022/07/05 03:30:17;;;;;;;2.43;2.10;;;18.60;62.00;;;;;;5062648;28;20527;-47
2022/07/05 03:32:44;;;;;;;2.30;2.17;;;18.60;62.10;;;;;;5052607;28;20457;-47
2022/07/05 03:35:11;;;;;;;3.73;2.43;;;18.50;61.40;;;;;;5062264;28;20834;-46
2022/07/05 03:37:37;;;;;;;5.13;2.50;;;18.50;61.40;;;;;;5060137;28;20457;-46
2022/07/05 03:40:05;;;;;;;2.77;2.57;;;18.50;61.60;;;;;;5061610;28;20599;-46
2022/07/05 03:42:32;;;;;;;4.30;3.10;;;18.50;61.70;;;;;;5060738;28;20458;-46
2022/07/05 03:44:59;;;;;;;5.83;2.93;;;18.50;62.70;;;;;;5049553;28;20457;-47
2022/07/05 03:47:25;;;;;;;4.37;2.73;;;18.40;62.90;;;;;;5063393;28;21015;-47
2022/07/05 03:49:53;;;;;;;4.00;2.97;;;18.50;62.80;;;;;;5066872;28;20453;-47
2022/07/05 03:52:20;;;;;;;3.20;2.60;;;18.50;62.80;;;;;;5069040;28;20459;-46
2022/07/05 03:54:52;;;;;;;5.73;3.30;;;18.40;63.10;;;;;;5055313;28;20532;-47
2022/07/05 03:57:19;;;;;;;3.43;3.23;;;18.40;63.20;;;;;;5051939;28;20466;-47
2022/07/05 03:59:46;;;;;;;3.57;3.27;;;18.40;63.60;;;;;;5068176;28;21016;-47
2022/07/05 04:02:13;;;;;;;2.47;2.23;;;18.40;63.70;;;;;;5065606;28;20493;-47
2022/07/05 04:04:40;;;;;;;2.90;2.53;;;18.40;63.40;;;;;;5051237;28;20471;-47
2022/07/05 04:07:06;;;;;;;2.20;2.03;;;18.30;63.40;;;;;;5068308;28;20461;-47
2022/07/05 04:09:33;;;;;;;3.23;2.50;;;18.40;63.60;;;;;;5052658;28;20833;-46
2022/07/05 04:12:00;;;;;;;2.57;2.20;;;18.30;63.60;;;;;;5067174;28;21012;-47
2022/07/05 04:14:27;;;;;;;3.40;2.10;;;18.30;63.50;;;;;;5053398;28;20532;-47
2022/07/05 04:16:54;;;;;;;2.03;1.83;;;18.30;63.80;;;;;;5066585;28;20469;-47
2022/07/05 04:19:21;;;;;;;3.07;1.70;;;18.30;64.00;;;;;;5055477;28;20459;-46
2022/07/05 04:21:47;;;;;;;2.40;2.20;;;18.30;64.40;;;;;;5066881;28;20472;-46
2022/07/05 04:24:14;;;;;;;2.53;2.27;;;18.30;64.50;;;;;;5066681;28;20994;-46
2022/07/05 04:26:41;;;;;;;5.33;2.00;;;18.30;64.70;;;;;;5067493;28;20438;-46
2022/07/05 04:29:08;;;;;;;2.20;1.90;;;18.30;64.70;;;;;;5064471;28;20823;-47
2022/07/05 04:31:35;;;;;;;4.87;2.10;;;18.40;64.60;;;;;;5067387;28;20550;-46
2022/07/05 04:34:02;;;;;;;2.10;2.00;;;18.40;64.50;;;;;;5054971;28;20451;-47
2022/07/05 04:36:28;;;;;;;2.17;1.90;;;18.40;64.30;;;;;;5067152;28;20453;-46
2022/07/05 04:38:55;;;;;;;1.90;1.73;;;18.40;64.20;;;;;;5067042;28;20477;-46
2022/07/05 04:41:22;;;;;;;3.43;2.40;;;18.40;64.20;;;;;;5054106;28;20496;-46
2022/07/05 04:43:49;;;;;;;3.33;2.20;;;18.50;64.40;;;;;;5065565;28;20460;-46
2022/07/05 04:46:15;;;;;;;2.10;2.00;;;18.50;64.60;;;;;;5051923;28;20767;-46
2022/07/05 04:48:42;;;;;;;2.10;1.90;;;18.50;64.70;;;;;;5046498;28;20453;-47
2022/07/05 04:51:09;;;;;;;2.03;1.50;;;18.60;64.50;;;;;;5064244;28;20497;-46
2022/07/05 04:53:36;;;;;;;2.43;2.23;;;18.60;64.30;;;;;;5067493;28;20472;-46
2022/07/05 04:56:03;;;;;;;5.73;2.23;;;18.70;64.10;;;;;;5049575;28;20449;-46
2022/07/05 04:58:30;;;;;;;3.23;2.20;;;18.70;64.10;;;;;;5067556;28;20556;-46
2022/07/05 05:00:57;;;;;;;4.00;1.97;;;18.80;64.00;;;;;;5048487;28;20485;-46
2022/07/05 05:03:24;;;;;;;6.20;1.77;;;18.90;63.70;;;;;;5063728;28;20521;-46
2022/07/05 05:05:51;;;;;;;1.87;1.60;;;18.90;63.50;;;;;;5052254;28;20442;-47
2022/07/05 05:08:18;;;;;;;2.97;2.10;;;18.90;63.70;;;;;;5060573;28;20806;-46
2022/07/05 05:10:44;;;;;;;2.10;1.83;;;19.00;64.40;;;;;;5068320;28;20967;-47
2022/07/05 05:13:11;;;;;;;2.40;1.80;;;19.10;63.40;;;;;;5047580;28;20465;-47
2022/07/05 05:15:38;;;;;;;3.83;1.97;;;19.20;63.10;;;;;;5067353;28;20458;-46
2022/07/05 05:18:05;;;;;;;2.80;1.80;;;19.20;63.10;;;;;;5047448;28;20458;-46
2022/07/05 05:20:31;;;;;;;3.70;1.73;;;19.30;63.30;;;;;;5049754;28;20509;-46
2022/07/05 05:23:05;;;;;;;5.20;1.73;;;19.40;62.50;;;;;;5062656;28;20894;-46
2022/07/05 05:25:34;;;;;;;2.93;1.90;;;19.40;62.20;;;;;;5049333;28;20463;-46
2022/07/05 05:28:01;;;;;;;1.77;1.50;;;19.40;62.20;;;;;;5052995;28;20459;-46
2022/07/05 05:30:28;;;;;;;2.90;1.77;;;19.40;62.20;;;;;;5066908;28;20461;-46
2022/07/05 05:32:55;;;;;;;2.47;1.57;;;19.40;62.70;;;;;;5066759;28;20767;-46
2022/07/05 05:35:23;;;;;;;1.63;1.40;;;19.50;62.50;;;;;;5051500;28;20565;-46
2022/07/05 05:37:53;;;;;;;2.90;1.50;;;19.60;62.20;;;;;;5068854;28;20469;-46
2022/07/05 05:40:21;;;;;;;1.70;1.50;;;19.70;61.90;;;;;;5065432;28;20481;-46
2022/07/05 05:42:48;;;;;;;3.27;1.50;;;19.80;62.40;;;;;;5051197;28;20488;-46
2022/07/05 05:45:15;;;;;;;2.83;1.80;;;19.80;62.40;;;;;;5060730;28;20449;-46
2022/07/05 05:47:50;;;;;;;2.47;2.13;;;19.90;62.00;;;;;;5063120;28;20584;-46
2022/07/05 05:50:30;;;;;;;6.63;2.10;;;19.90;61.70;;;;;;5061216;28;20456;-46
2022/07/05 05:52:56;;;;;;;5.40;1.83;;;19.90;62.00;;;;;;5046855;28;20489;-46
2022/07/05 05:55:25;;;;;;;2.70;1.60;;;20.00;62.40;;;;;;5063954;28;20450;-46
2022/07/05 05:57:52;;;;;;;2.13;1.60;;;20.00;62.10;;;;;;5046534;28;20458;-46
2022/07/05 06:00:20;;;;;;;6.73;2.53;;;20.10;61.60;;;;;;5060314;28;20658;-46
2022/07/05 06:02:49;;;;;;;3.43;1.90;;;20.20;61.40;;;;;;5062349;28;20445;-46
2022/07/05 06:05:17;;;;;;;5.10;2.50;;;20.20;60.50;;;;;;5060832;28;20460;-46
2022/07/05 06:07:47;;;;;;;4.20;1.70;;;20.30;59.90;;;;;;5045059;28;20497;-46
2022/07/05 06:10:21;;;;;;;5.00;1.57;;;20.30;59.80;;;;;;5058047;28;20504;-46
2022/07/05 06:12:48;;;;;;;2.83;1.90;;;20.30;60.00;;;;;;5056831;28;20558;-46
2022/07/05 06:15:15;;;;;;;1.70;1.47;;;20.40;60.00;;;;;;5046203;28;20454;-46
2022/07/05 06:17:42;;;;;;;2.13;1.50;;;20.40;60.10;;;;;;5060425;28;20956;-46
2022/07/05 06:20:21;;;;;;;1.83;1.73;;;20.50;60.40;;;;;;5059926;28;20585;-46
2022/07/05 06:22:49;;;;;;;1.90;1.17;;;20.50;59.20;;;;;;5042646;28;20450;-46
2022/07/05 06:25:16;;;;;;;4.10;1.63;;;20.60;59.40;;;;;;5042632;28;20820;-46
2022/07/05 06:27:54;;;;;;;3.60;1.80;;;20.70;57.70;;;;;;5044136;28;20539;-46
2022/07/05 06:30:22;;;;;;;3.97;1.50;;;20.70;58.40;;;;;;5059120;28;20470;-46
2022/07/05 06:32:50;;;;;;;2.77;1.30;;;20.70;58.30;;;;;;5041334;28;20466;-46
2022/07/05 06:35:18;;;;;;;1.90;1.47;;;20.80;58.20;;;;;;5042381;28;20466;-46
2022/07/05 06:37:47;;;;;;;3.50;1.60;;;20.90;56.90;;;;;;5058543;28;20557;-46
2022/07/05 06:40:21;;;;;;;3.33;2.00;;;21.00;57.10;;;;;;5059905;28;20479;-46
2022/07/05 06:42:49;;;;;;;4.60;1.80;;;21.10;56.80;;;;;;5060312;28;20976;-46
2022/07/05 06:45:16;;;;;;;3.33;1.70;;;21.10;57.20;;;;;;5060692;28;20458;-46
2022/07/05 06:47:43;;;;;;;2.30;1.50;;;21.30;57.20;;;;;;5047045;28;20442;-46
2022/07/05 06:50:12;;;;;;;2.17;1.57;;;21.40;56.30;;;;;;5060938;28;20460;-46
2022/07/05 06:52:40;;;;;;;1.73;1.10;;;21.50;56.20;;;;;;5059458;28;20472;-46
2022/07/05 06:55:07;;;;;;;2.10;1.90;;;21.60;55.60;;;;;;5059422;28;20589;-46
2022/07/05 06:57:33;;;;;;;2.40;1.43;;;21.60;55.10;;;;;;5042987;28;20963;-46
2022/07/05 07:00:01;;;;;;;2.27;1.50;;;21.70;54.60;;;;;;5061971;28;21004;-46
2022/07/05 07:02:29;;;;;;;3.23;1.50;;;21.80;54.00;;;;;;5061039;28;21031;-46
2022/07/05 07:04:56;;;;;;;2.23;1.30;;;21.90;53.70;;;;;;5058713;28;21011;-46
2022/07/05 07:10:27;;;;;;;2.50;1.43;;;22.20;52.80;;;;;;5047659;28;20480;-46
2022/07/05 07:13:00;;;;;;;3.30;1.53;;;22.30;52.60;;;;;;5044479;28;20977;-46
2022/07/05 07:15:28;;;;;;;2.17;1.00;;;22.40;52.60;;;;;;5054742;28;20955;-46
2022/07/05 07:17:55;;;;;;;2.30;1.60;;;22.50;52.40;;;;;;5050774;28;20469;-46
2022/07/05 07:20:22;;;;;;;1.97;1.23;;;22.70;52.00;;;;;;5062044;28;20489;-47
2022/07/05 07:22:49;;;;;;;3.50;1.23;;;22.90;52.10;;;;;;5066397;28;20467;-46
2022/07/05 07:25:17;;;;;;;3.43;1.40;;;23.00;52.00;;;;;;5048747;28;20456;-46
2022/07/05 07:27:45;;;;;;;1.90;1.30;;;23.10;50.70;;;;;;5064800;28;20457;-46
2022/07/05 07:30:21;;;;;;;2.23;1.50;;;23.30;49.80;;;;;;5064224;28;20449;-46
2022/07/05 07:32:47;;;;;;;2.70;2.00;;;23.50;49.50;;;;;;5064912;28;20444;-46
2022/07/05 07:35:14;;;;;;;3.83;1.50;;;23.70;49.80;;;;;;5065791;28;20455;-47
2022/07/05 07:37:41;;;;;;;2.33;1.40;;;23.90;48.80;;;;;;5064600;28;20457;-47
2022/07/05 07:40:09;;;;;;;1.97;1.50;;;24.00;49.00;;;;;;5066374;28;20457;-46
2022/07/05 07:42:36;;;;;;;1.43;1.00;;;24.20;48.50;;;;;;5040692;28;20449;-46
2022/07/05 07:45:04;;;;;;;4.33;1.80;;;24.30;47.80;;;;;;5041095;28;20896;-46
2022/07/05 07:47:32;;;;;;;3.13;1.43;;;24.50;47.80;;;;;;5040817;28;20453;-46
2022/07/05 07:50:00;;;;;;;1.87;1.50;;;24.60;47.20;;;;;;5061944;28;20461;-46
2022/07/05 07:52:27;;;;;;;1.73;1.23;;;24.90;46.60;;;;;;5062864;28;20488;-47
2022/07/05 07:54:54;;;;;;;1.57;1.33;;;25.00;46.30;;;;;;5045155;28;20808;-47
2022/07/05 07:57:21;;;;;;;1.60;1.50;;;25.20;46.30;;;;;;5061735;28;20457;-46
2022/07/05 07:59:48;;;;;;;3.80;1.17;;;25.30;46.00;;;;;;5043291;28;20563;-47
2022/07/05 08:02:15;;;;;;;2.50;1.33;;;25.50;46.20;;;;;;5046738;28;20494;-46
2022/07/05 08:04:41;;;;;;;4.33;1.33;;;25.60;44.90;;;;;;5043018;28;20449;-47
2022/07/05 08:07:09;;;;;;;5.70;1.50;;;25.80;44.80;;;;;;5064718;28;20486;-47
2022/07/05 08:09:35;;;;;;;2.17;1.70;;;25.90;44.70;;;;;;5064116;28;20460;-46
2022/07/05 08:12:02;;;;;;;1.77;1.30;;;26.00;44.30;;;;;;5060471;28;20976;-47
2022/07/05 08:14:29;;;;;;;4.77;1.43;;;26.10;45.10;;;;;;5062216;28;20465;-46
2022/07/05 08:16:56;;;;;;;3.60;1.30;;;26.20;45.10;;;;;;5030736;28;21033;-47
2022/07/05 08:22:08;;;;;;;1.63;0.97;;;26.40;45.00;;;;;;5061218;28;20581;-47
2022/07/05 08:24:39;;;;;;;1.30;1.03;;;26.50;44.70;;;;;;5059996;28;20472;-47
2022/07/05 08:27:07;;;;;;;3.70;1.17;;;26.70;44.40;;;;;;5062879;28;20464;-47
2022/07/05 08:29:34;;;;;;;2.60;1.20;;;26.90;44.50;;;;;;5063773;28;20440;-47
2022/07/05 08:32:01;;;;;;;3.30;1.30;;;27.00;43.20;;;;;;5062799;28;20442;-47
2022/07/05 08:34:27;;;;;;;2.60;1.43;;;27.10;43.20;;;;;;5057435;28;20488;-47
2022/07/05 08:36:54;;;;;;;1.40;1.00;;;27.20;42.80;;;;;;5063614;28;20454;-47
2022/07/05 08:39:21;;;;;;;0.97;0.80;;;27.30;42.30;;;;;;5059874;28;20579;-47
2022/07/05 08:41:50;;;;;;;2.47;1.40;;;27.40;41.70;;;;;;5058752;28;20685;-47
2022/07/05 08:44:21;;;;;;;1.20;1.10;;;27.40;41.90;;;;;;5061512;28;20458;-47
2022/07/05 08:46:52;;;;;;;3.60;2.07;;;27.50;42.20;;;;;;5049220;28;20548;-46
2022/07/05 08:49:25;;;;;;;1.77;1.07;;;27.50;42.00;;;;;;5061271;28;20707;-47
2022/07/05 08:51:54;;;;;;;2.43;1.23;;;27.60;41.90;;;;;;5059070;28;20562;-46
2022/07/05 08:54:23;;;;;;;6.10;1.53;;;27.60;40.80;;;;;;5061527;28;20211;-47
2022/07/05 08:56:51;;;;;;;2.17;1.10;;;27.70;41.10;;;;;;5042700;28;20461;-46
2022/07/05 08:59:38;;;;;;;1.30;0.80;;;27.70;41.50;;;;;;5050872;28;20568;-47
2022/07/05 09:02:08;;;;;;;1.30;0.77;;;27.60;41.90;;;;;;5045876;28;20227;-48
2022/07/05 09:04:43;;;;;;;2.60;2.03;;;27.70;40.80;;;;;;5047641;28;20299;-47
2022/07/05 09:07:16;;;;;;;2.80;0.80;;;27.60;40.80;;;;;;5049238;28;20645;-48
2022/07/05 09:09:45;;;;;;;1.13;0.83;;;27.60;40.90;;;;;;5058050;28;20199;-48
2022/07/05 09:12:13;;;;;;;3.83;1.40;;;27.60;40.90;;;;;;5046106;28;20297;-48
2022/07/05 09:14:52;;;;;;;2.77;1.30;;;27.80;40.40;;;;;;5064406;28;20268;-48
2022/07/05 09:17:19;;;;;;;1.83;1.27;;;28.00;40.00;;;;;;5059163;28;20698;-48
2022/07/05 09:20:16;;;;;;;2.20;1.10;;;28.20;40.10;;;;;;5062424;28;20207;-48
2022/07/05 09:22:54;;;;;;;1.43;0.90;;;28.20;40.50;;;;;;5050708;28;20224;-47
2022/07/05 09:25:27;;;;;;;4.03;1.77;;;28.30;40.50;;;;;;5061742;28;20225;-48
2022/07/05 09:27:58;;;;;;;3.33;1.20;;;28.40;39.10;;;;;;5061933;28;20206;-48
2022/07/05 09:30:39;;;;;;;1.90;1.43;;;28.50;39.10;;;;;;5064987;28;20214;-48
2022/07/05 09:33:15;;;;;;;1.77;1.20;;;28.60;38.90;;;;;;5041182;28;20195;-48
2022/07/05 09:35:51;;;;;;;2.10;1.23;;;28.60;39.00;;;;;;5063618;28;20256;-48
2022/07/05 09:38:26;;;;;;;3.87;1.37;;;28.60;38.60;;;;;;5064171;28;20671;-48
2022/07/05 09:40:55;;;;;;;1.10;1.00;;;28.50;39.00;;;;;;5055995;28;20332;-48
2022/07/05 09:43:26;;;;;;;1.80;1.53;;;28.60;39.00;;;;;;5033241;28;20588;-48
2022/07/05 09:46:03;;;;;;;2.43;1.10;;;28.60;38.10;;;;;;5059980;28;20693;-48
2022/07/05 09:48:31;;;;;;;1.70;1.27;;;28.70;38.40;;;;;;5063635;28;20206;-47
2022/07/05 09:51:13;;;;;;;1.20;1.00;;;28.80;37.40;;;;;;5047266;28;20326;-48
2022/07/05 09:54:01;;;;;;;2.07;1.50;;;28.90;37.00;;;;;;5047710;28;20210;-48
2022/07/05 09:56:46;;;;;;;2.80;1.20;;;29.10;36.30;;;;;;5060709;28;20211;-48
2022/07/05 09:59:14;;;;;;;1.85;1.48;;;29.20;35.70;;;;;;5058099;28;20695;-47
2022/07/05 10:01:41;;;;;;;1.85;1.10;;;29.40;35.60;;;;;;5057860;28;20259;-48
2022/07/05 10:04:09;;;;;;;1.95;1.05;;;29.40;35.10;;;;;;5047385;28;20648;-48
2022/07/05 10:06:36;;;;;;;2.03;1.20;;;29.50;34.40;;;;;;5044741;28;20292;-48
2022/07/05 10:09:04;;;;;;;2.30;1.10;;;29.60;34.70;;;;;;5045309;28;20199;-48
2022/07/05 10:11:32;;;;;;;2.85;1.30;;;29.70;34.40;;;;;;5062505;28;20664;-48
2022/07/05 10:14:02;;;;;;;1.30;1.20;;;29.70;35.00;;;;;;5043165;28;20578;-48
2022/07/05 10:16:28;;;;;;;1.52;1.10;;;29.80;35.10;;;;;;5063099;28;20248;-48
2022/07/05 10:18:56;;;;;;;3.28;1.20;;;29.90;35.80;;;;;;5046393;28;20213;-48
2022/07/05 10:21:26;;;;;;;1.25;1.15;;;30.10;34.80;;;;;;5062989;28;20222;-48
2022/07/05 10:23:56;;;;;;;2.40;1.50;;;30.10;33.00;;;;;;5060857;28;20274;-47
2022/07/05 10:26:24;;;;;;;1.10;1.00;;;30.10;33.70;;;;;;5058575;28;20207;-48
2022/07/05 10:28:52;;;;;;;1.48;1.23;;;30.10;33.80;;;;;;5046302;28;20213;-48
2022/07/05 10:31:29;;;;;;;1.48;1.38;;;30.10;34.10;;;;;;5064084;28;20221;-49
2022/07/05 10:33:57;;;;;;;1.77;1.40;;;30.20;34.40;;;;;;5042650;28;20213;-48
2022/07/05 10:36:26;;;;;;;3.20;1.30;;;30.20;34.50;;;;;;5060443;28;20751;-48
2022/07/05 10:38:53;;;;;;;1.88;1.02;;;30.10;34.70;;;;;;5042056;28;20257;-48
2022/07/05 10:41:24;;;;;;;4.82;1.38;;;30.10;34.00;;;;;;5063832;28;20222;-48
2022/07/05 10:43:55;;;;;;;3.17;1.33;;;30.00;34.30;;;;;;5058814;28;20195;-48
2022/07/05 10:46:36;;;;;;;3.75;1.38;;;29.80;34.00;;;;;;5058232;28;20199;-48
2022/07/05 10:49:17;;;;;;;4.65;1.70;;;29.60;35.80;;;;;;5059370;28;20399;-48
2022/07/05 10:51:44;;;;;;;1.40;1.30;;;29.40;36.70;;;;;;5061209;28;20206;-48
2022/07/05 10:54:19;;;;;;;2.50;1.40;;;29.10;36.70;;;;;;5045233;28;20739;-48
2022/07/05 10:57:20;;;;;;;2.30;1.60;;;28.70;37.10;;;;;;5059473;28;20208;-48
2022/07/05 11:00:06;;;;;;;2.10;1.30;;;28.50;37.40;;;;;;5061691;28;20593;-48
2022/07/05 11:02:33;;;;;;;4.07;1.50;;;28.20;38.50;;;;;;5056905;28;20223;-48
2022/07/05 11:05:00;;;;;;;1.70;1.60;;;28.10;38.50;;;;;;5046094;28;20209;-48
2022/07/05 11:08:02;;;;;;;2.67;1.50;;;28.10;38.50;;;;;;5047297;28;20234;-48
2022/07/05 11:10:32;;;;;;;1.33;1.23;;;28.00;38.60;;;;;;5061303;28;20213;-48
2022/07/05 11:12:59;;;;;;;1.90;1.53;;;27.90;37.50;;;;;;5042975;28;20212;-48
2022/07/05 11:15:25;;;;;;;1.40;1.30;;;27.80;39.00;;;;;;5062294;28;20668;-48
2022/07/05 11:18:16;;;;;;;1.53;1.17;;;27.60;38.40;;;;;;5039074;28;20217;-48
2022/07/05 11:20:43;;;;;;;1.37;1.27;;;27.60;37.90;;;;;;5057839;28;20277;-47
2022/07/05 11:23:14;;;;;;;1.13;1.03;;;27.50;37.90;;;;;;5056194;28;20984;-48
2022/07/05 11:25:44;;;;;;;2.10;1.30;;;27.50;38.00;;;;;;5060439;28;20306;-48
2022/07/05 11:28:22;;;;;;;3.07;1.47;;;27.40;38.70;;;;;;5046465;28;20559;-47
2022/07/05 11:30:59;;;;;;;1.80;1.60;;;27.30;38.80;;;;;;5059734;28;20983;-47
2022/07/05 11:33:35;;;;;;;2.30;2.10;;;27.30;38.90;;;;;;5058066;28;20459;-48
2022/07/05 11:36:04;;;;;;;1.93;1.63;;;27.20;39.00;;;;;;5059229;28;20455;-47
2022/07/05 11:38:31;;;;;;;1.73;1.63;;;27.10;39.60;;;;;;5044839;28;20458;-48
2022/07/05 11:41:18;;;;;;;1.93;1.73;;;27.20;39.70;;;;;;5056832;28;21002;-48
2022/07/05 11:43:56;;;;;;;1.47;1.30;;;27.10;39.00;;;;;;5043034;28;20453;-48
2022/07/05 11:46:24;;;;;;;1.80;1.57;;;27.10;40.10;;;;;;5060085;28;20548;-48
2022/07/05 11:49:11;;;;;;;2.90;1.80;;;27.10;39.50;;;;;;5033191;28;20476;-48
2022/07/05 11:51:37;;;;;;;1.93;1.73;;;27.10;39.80;;;;;;5057326;28;20574;-48
2022/07/05 11:54:09;;;;;;;1.90;1.70;;;27.10;39.90;;;;;;5045177;28;20455;-48
2022/07/05 11:56:43;;;;;;;3.53;1.80;;;27.10;40.60;;;;;;5056832;28;20211;-48
2022/07/05 11:59:21;;;;;;;2.50;1.40;;;27.10;39.30;;;;;;5042155;28;20923;-48
2022/07/05 12:01:48;;;;;;;3.77;1.50;;;27.10;39.30;;;;;;5044497;28;20487;-47
2022/07/05 12:04:29;;;;;;;1.40;1.30;;;27.20;39.10;;;;;;5059296;28;20888;-48
2022/07/05 12:06:57;;;;;;;2.00;1.43;;;27.20;37.90;;;;;;5048278;28;21053;-48
2022/07/05 12:15:05;;;;;;;1.73;1.50;;;27.00;37.90;;;;;;5063932;28;20485;-48
2022/07/05 12:17:34;;;;;;;1.60;1.43;;;26.90;37.90;;;;;;5059594;28;20466;-47
2022/07/05 12:20:01;;;;;;;1.13;1.03;;;26.80;38.10;;;;;;5059435;28;20453;-48
2022/07/05 12:22:36;;;;;;;1.60;1.50;;;26.90;38.80;;;;;;5059397;28;20492;-48
2022/07/05 12:25:06;;;;;;;2.07;1.20;;;26.90;38.90;;;;;;5048510;28;20466;-48
2022/07/05 12:27:35;;;;;;;3.90;2.50;;;26.90;37.60;;;;;;5059508;28;20460;-47
2022/07/05 12:30:03;;;;;;;3.57;1.70;;;27.00;37.00;;;;;;5033124;28;20976;-48
2022/07/05 12:32:31;;;;;;;2.07;1.50;;;27.00;38.00;;;;;;5061123;28;21028;-47
2022/07/05 12:35:02;;;;;;;1.83;1.60;;;27.10;39.10;;;;;;5063148;28;20456;-48
2022/07/05 12:37:33;;;;;;;1.87;1.70;;;27.10;39.20;;;;;;5061963;28;20457;-48
2022/07/05 12:40:09;;;;;;;2.43;1.30;;;27.10;40.30;;;;;;5055558;28;20518;-47
2022/07/05 12:42:38;;;;;;;2.27;1.17;;;27.20;38.80;;;;;;5064330;28;20491;-47
2022/07/05 12:45:16;;;;;;;1.70;1.30;;;27.20;38.90;;;;;;5062377;28;20828;-47
2022/07/05 12:47:53;;;;;;;1.77;1.10;;;27.20;38.00;;;;;;5033801;28;20821;-48
2022/07/05 12:50:24;;;;;;;1.43;1.20;;;27.10;37.70;;;;;;5061914;28;20461;-48
2022/07/05 12:58:55;;;;;;;1.70;1.20;;;27.00;37.70;;;;;;5062183;28;20459;-48
2022/07/05 13:01:27;;;;;;;1.20;1.10;;;27.10;37.50;;;;;;5047175;28;20560;-48
2022/07/05 13:04:06;;;;;;;1.40;1.30;;;27.20;37.60;;;;;;5062087;28;20457;-48
2022/07/05 13:06:53;;;;;;;1.50;1.40;;;27.20;37.40;;;;;;5059463;28;20518;-47
2022/07/05 13:09:29;;;;;;;1.30;1.20;;;27.20;36.60;;;;;;5062003;28;20213;-47
2022/07/05 13:12:06;;;;;;;1.43;1.33;;;27.30;37.80;;;;;;5061597;28;20462;-48
2022/07/05 13:14:34;;;;;;;1.50;1.37;;;27.40;36.50;;;;;;5058523;28;20465;-47
2022/07/05 13:17:01;;;;;;;1.90;1.40;;;27.40;37.40;;;;;;5061096;28;20565;-48